Time;durP1;ratioP1;P1;durP2;ratioP2;P2;SDS_P1;SDS_P2;PMS_P1;PMS_P2;Temp;Humidity;BMP_temperature;BMP_pressure;BME280_temperature;BME280_humidity;BME280_pressure;Samples;Min_cycle;Max_cycle;Signal;HPM_P1;HPM_P2
2023/10/21 00:01:00;;;;;;;6.65;4.07;;;;;;;;;;5050029;28;20037;-28
2023/10/21 00:03:26;;;;;;;6.85;4.05;;;;;;;;;;5047590;28;20446;-29
2023/10/21 00:05:52;;;;;;;7.47;3.80;;;;;;;;;;5050083;28;20044;-28
2023/10/21 00:08:18;;;;;;;7.53;3.95;;;15.80;62.80;;;;;;5047619;28;20048;-28
2023/10/21 00:10:44;;;;;;;8.48;3.50;;;15.80;68.40;;;;;;5040926;28;20041;-26
2023/10/21 00:13:10;;;;;;;6.95;3.58;;;;;;;;;;5045655;28;20059;-29
2023/10/21 00:15:36;;;;;;;7.00;3.97;;;;;;;;;;5047107;28;20047;-26
2023/10/21 00:18:02;;;;;;;7.75;4.43;;;15.30;60.10;;;;;;5042154;28;20054;-27
2023/10/21 00:20:28;;;;;;;7.00;4.30;;;15.40;59.30;;;;;;5036432;28;20048;-29
2023/10/21 00:22:53;;;;;;;8.00;4.03;;;16.20;70.30;;;;;;5041995;28;20048;-27
2023/10/21 00:25:19;;;;;;;6.25;3.72;;;16.30;60.50;;;;;;5039897;28;20501;-26
2023/10/21 00:27:44;;;;;;;6.38;3.97;;;15.70;69.40;;;;;;5044941;28;20035;-28
2023/10/21 00:30:11;;;;;;;6.50;3.58;;;15.70;67.40;;;;;;5036829;28;20044;-28
2023/10/21 00:32:37;;;;;;;8.20;3.50;;;15.90;72.80;;;;;;5042646;28;20041;-28
2023/10/21 00:35:04;;;;;;;6.28;3.63;;;15.40;61.60;;;;;;5041956;28;20036;-28
2023/10/21 00:37:30;;;;;;;7.07;3.92;;;16.40;64.10;;;;;;5044077;28;20090;-27
2023/10/21 00:39:56;;;;;;;6.93;3.53;;;16.70;67.00;;;;;;5046085;28;20049;-26
2023/10/21 00:42:21;;;;;;;7.05;3.92;;;15.80;78.90;;;;;;5046229;28;20136;-29
2023/10/21 00:44:47;;;;;;;7.07;4.05;;;16.10;63.70;;;;;;5042730;28;20037;-28
2023/10/21 00:47:12;;;;;;;9.95;3.78;;;15.90;66.60;;;;;;5048899;28;20062;-29
2023/10/21 00:49:38;;;;;;;7.57;3.78;;;15.30;67.20;;;;;;5045898;28;20044;-27
2023/10/21 00:52:05;;;;;;;7.07;4.30;;;15.80;74.30;;;;;;5047493;28;20487;-29
2023/10/21 00:54:31;;;;;;;8.57;4.18;;;15.70;76.80;;;;;;5048666;28;20067;-28
2023/10/21 00:56:57;;;;;;;8.18;4.10;;;;;;;;;;5048353;28;20060;-28
2023/10/21 00:59:23;;;;;;;7.25;3.78;;;15.80;80.00;;;;;;5051714;28;20390;-27
2023/10/21 01:01:49;;;;;;;6.10;3.85;;;15.80;69.80;;;;;;5048954;28;20049;-26
2023/10/21 01:04:16;;;;;;;7.00;4.30;;;16.70;80.80;;;;;;5048460;28;20044;-29
2023/10/21 01:06:43;;;;;;;7.97;4.15;;;15.40;68.60;;;;;;5058337;28;20029;-27
2023/10/21 01:09:10;;;;;;;8.13;4.50;;;15.90;81.00;;;;;;5050628;28;20037;-28
2023/10/21 01:11:37;;;;;;;8.07;4.53;;;;;;;;;;5053173;28;20048;-29
2023/10/21 01:14:03;;;;;;;9.85;4.65;;;15.90;69.70;;;;;;5049321;28;20040;-28
2023/10/21 01:16:28;;;;;;;9.32;4.22;;;15.90;69.40;;;;;;5030109;28;20678;-30
2023/10/21 01:18:54;;;;;;;7.95;4.30;;;16.50;72.10;;;;;;5054490;28;20465;-28
2023/10/21 01:21:20;;;;;;;7.05;4.38;;;;;;;;;;5050508;28;20037;-28
2023/10/21 01:23:46;;;;;;;9.55;4.38;;;;;;;;;;5053126;28;20037;-28
2023/10/21 01:26:12;;;;;;;8.50;4.40;;;;;;;;;;5051984;28;20128;-29
2023/10/21 01:28:38;;;;;;;8.32;4.13;;;15.50;73.30;;;;;;5053379;28;20171;-28
2023/10/21 01:31:04;;;;;;;7.20;4.10;;;;;;;;;;5051704;28;20116;-30
2023/10/21 01:33:30;;;;;;;6.47;3.83;;;15.30;73.80;;;;;;5044253;28;20041;-30
2023/10/21 01:35:56;;;;;;;7.47;4.32;;;15.80;73.20;;;;;;5052670;28;20048;-28
2023/10/21 01:38:21;;;;;;;6.13;3.80;;;15.40;74.00;;;;;;5054552;28;20600;-29
2023/10/21 01:40:49;;;;;;;7.32;4.35;;;15.60;75.80;;;;;;5071972;28;20037;-28
2023/10/21 01:43:15;;;;;;;8.73;4.93;;;;;;;;;;5048636;28;20095;-28
2023/10/21 01:45:41;;;;;;;7.93;4.25;;;;;;;;;;5050313;28;20102;-28
2023/10/21 01:48:08;;;;;;;10.02;4.20;;;15.70;88.80;;;;;;5052696;28;20072;-29
2023/10/21 01:50:34;;;;;;;6.07;3.65;;;16.40;75.40;;;;;;5053463;28;20032;-27
2023/10/21 01:53:00;;;;;;;6.53;3.55;;;15.70;88.20;;;;;;5058471;28;20037;-26
2023/10/21 01:55:26;;;;;;;8.32;4.55;;;15.70;89.30;;;;;;5059607;28;20039;-27
2023/10/21 01:57:52;;;;;;;8.25;3.65;;;;;;;;;;5056964;28;20455;-30
2023/10/21 02:00:21;;;;;;;5.90;2.95;;;;;;;;;;5044550;28;20044;-30
2023/10/21 02:02:51;;;;;;;7.53;4.78;;;;;;;;;;5041831;28;20041;-28
2023/10/21 02:05:17;;;;;;;6.65;3.55;;;15.70;88.00;;;;;;5061090;28;20134;-27
2023/10/21 02:07:43;;;;;;;9.43;4.32;;;15.10;79.30;;;;;;5062323;28;20074;-29
2023/10/21 02:10:09;;;;;;;6.60;3.30;;;15.80;78.70;;;;;;5047587;28;20460;-28
2023/10/21 02:12:35;;;;;;;6.72;3.88;;;15.70;89.40;;;;;;5062182;28;20458;-29
2023/10/21 02:15:01;;;;;;;7.60;3.88;;;;;;;;;;5053124;28;20033;-30
2023/10/21 02:17:27;;;;;;;8.00;4.30;;;;;;;;;;5051052;28;20492;-27
2023/10/21 02:19:56;;;;;;;6.50;3.80;;;15.80;74.40;;;;;;5049525;28;20121;-29
2023/10/21 02:22:25;;;;;;;6.70;3.50;;;;;;;;;;5037976;28;20068;-27
2023/10/21 02:24:53;;;;;;;8.27;3.72;;;;;;;;;;5041067;28;20071;-29
2023/10/21 02:27:19;;;;;;;6.15;3.20;;;15.70;85.70;;;;;;5034764;28;20095;-29
2023/10/21 02:29:45;;;;;;;7.00;4.07;;;16.40;90.20;;;;;;5041906;28;20040;-27
2023/10/21 02:32:11;;;;;;;7.45;3.70;;;15.80;90.70;;;;;;5040083;28;20033;-29
2023/10/21 02:34:36;;;;;;;5.88;3.47;;;15.80;87.80;;;;;;5048332;28;20172;-25
2023/10/21 02:37:02;;;;;;;6.47;3.72;;;;;;;;;;5035553;28;20412;-27
2023/10/21 02:39:29;;;;;;;5.63;3.15;;;;;;;;;;5043767;28;20032;-26
2023/10/21 02:41:55;;;;;;;6.30;3.60;;;16.10;83.80;;;;;;5050595;28;20555;-28
2023/10/21 02:44:21;;;;;;;6.10;3.00;;;16.50;91.00;;;;;;5044224;28;20050;-28
2023/10/21 02:46:47;;;;;;;7.22;3.35;;;16.00;85.30;;;;;;5047318;28;20025;-26
2023/10/21 02:49:14;;;;;;;10.25;3.97;;;15.30;85.90;;;;;;5044635;28;20120;-27
2023/10/21 02:51:40;;;;;;;6.22;3.58;;;;;;;;;;5056237;28;20041;-26
2023/10/21 02:54:07;;;;;;;6.90;3.53;;;15.50;85.70;;;;;;5052012;28;20052;-28
2023/10/21 02:56:33;;;;;;;6.63;3.20;;;;;;;;;;5053761;28;20404;-28
2023/10/21 02:58:59;;;;;;;6.47;3.10;;;15.30;85.70;;;;;;5051645;28;20044;-26
2023/10/21 03:01:25;;;;;;;6.90;3.47;;;;;;;;;;5044868;28;20049;-29
2023/10/21 03:03:52;;;;;;;5.80;3.08;;;;;;;;;;5053447;28;20090;-28
2023/10/21 03:06:19;;;;;;;6.15;3.08;;;;;;;;;;5051592;28;20044;-28
2023/10/21 03:08:45;;;;;;;6.07;3.30;;;15.30;87.10;;;;;;5053389;28;20044;-28
2023/10/21 03:11:11;;;;;;;6.07;3.30;;;;;;;;;;5049018;28;20116;-29
2023/10/21 03:13:38;;;;;;;6.22;3.17;;;;;;;;;;5053843;28;20041;-29
2023/10/21 03:16:16;;;;;;;7.95;3.42;;;15.90;57.70;;;;;;5053697;28;20095;-27
2023/10/21 03:18:42;;;;;;;6.15;3.00;;;15.20;85.50;;;;;;5044504;28;20067;-29
2023/10/21 03:21:08;;;;;;;6.82;3.22;;;15.90;85.90;;;;;;5047265;28;20056;-26
2023/10/21 03:23:34;;;;;;;6.07;2.90;;;;;;;;;;5051322;28;20045;-29
2023/10/21 03:26:01;;;;;;;5.75;3.33;;;;;;;;;;5051550;28;20108;-29
2023/10/21 03:28:28;;;;;;;5.30;2.63;;;;;;;;;;5050789;28;20033;-26
2023/10/21 03:30:57;;;;;;;5.97;2.97;;;;;;;;;;5047634;28;20451;-26
2023/10/21 03:33:24;;;;;;;5.72;3.30;;;;;;;;;;5055268;28;20044;-27
2023/10/21 03:35:54;;;;;;;6.43;2.88;;;15.30;88.30;;;;;;5050517;28;20048;-27
2023/10/21 03:38:21;;;;;;;5.78;2.90;;;15.60;94.40;;;;;;5049101;28;20063;-28
2023/10/21 03:41:03;;;;;;;7.20;2.85;;;;;;;;;;5050652;28;20055;-28
2023/10/21 03:43:29;;;;;;;6.47;2.80;;;;;;;;;;5050296;28;20076;-28
2023/10/21 03:45:56;;;;;;;6.50;3.25;;;;;;;;;;5050414;28;20041;-29
2023/10/21 03:48:23;;;;;;;6.75;2.70;;;15.60;71.20;;;;;;5049731;28;20129;-29
2023/10/21 03:50:50;;;;;;;6.32;2.95;;;;;;;;;;5054481;28;20476;-29
2023/10/21 03:53:16;;;;;;;5.45;2.35;;;;;;;;;;5049231;28;20045;-28
2023/10/21 03:55:43;;;;;;;4.90;2.65;;;15.80;95.80;;;;;;5046205;28;20041;-27
2023/10/21 03:58:12;;;;;;;7.18;2.88;;;15.60;92.80;;;;;;5049301;28;20090;-25
2023/10/21 04:00:38;;;;;;;5.10;2.80;;;15.50;88.40;;;;;;5042987;28;20032;-27
2023/10/21 04:03:04;;;;;;;7.55;2.90;;;15.60;92.90;;;;;;5047926;28;20135;-28
2023/10/21 04:05:31;;;;;;;6.32;2.97;;;;;;;;;;5049416;28;20033;-28
2023/10/21 04:07:57;;;;;;;6.10;2.80;;;;;;;;;;5048384;28;20449;-28
2023/10/21 04:10:22;;;;;;;9.45;3.70;;;15.50;88.50;;;;;;5046589;28;20037;-31
2023/10/21 04:12:48;;;;;;;6.00;2.83;;;15.60;91.80;;;;;;5041226;28;20052;-27
2023/10/21 04:15:14;;;;;;;6.75;2.58;;;15.50;91.60;;;;;;5043917;28;20074;-28
2023/10/21 04:17:40;;;;;;;7.10;3.03;;;15.50;92.70;;;;;;5046722;28;20138;-27
2023/10/21 04:20:06;;;;;;;5.68;2.85;;;;;;;;;;5044035;28;20120;-27
2023/10/21 04:22:32;;;;;;;5.88;2.53;;;15.50;93.70;;;;;;5043530;28;20049;-27
2023/10/21 04:24:58;;;;;;;6.35;2.50;;;;;;;;;;5039197;28;20044;-29
2023/10/21 04:27:24;;;;;;;6.65;3.03;;;;;;;;;;5046938;28;20424;-28
2023/10/21 04:29:50;;;;;;;5.80;2.90;;;;;;;;;;5039087;28;20128;-28
2023/10/21 04:32:16;;;;;;;5.70;2.70;;;15.50;91.50;;;;;;5043385;28;20140;-28
2023/10/21 04:34:45;;;;;;;6.60;2.75;;;;;;;;;;5046859;28;20046;-29
2023/10/21 04:37:10;;;;;;;6.13;2.65;;;15.60;93.50;;;;;;5050101;28;20040;-27
2023/10/21 04:39:37;;;;;;;7.25;3.38;;;;;;;;;;5050978;28;20036;-31
2023/10/21 04:42:04;;;;;;;5.40;2.50;;;;;;;;;;5049206;28;20450;-29
2023/10/21 04:44:30;;;;;;;7.20;2.83;;;15.40;93.90;;;;;;5044386;28;20033;-29
2023/10/21 04:46:55;;;;;;;5.70;3.00;;;15.20;90.50;;;;;;5043180;28;20036;-29
2023/10/21 04:49:21;;;;;;;7.57;2.60;;;15.40;91.70;;;;;;5049246;28;20033;-26
2023/10/21 04:51:46;;;;;;;5.40;3.22;;;15.50;96.50;;;;;;5048540;28;20119;-29
2023/10/21 04:54:12;;;;;;;5.45;2.80;;;;;;;;;;5048224;28;20078;-28
2023/10/21 04:56:38;;;;;;;6.57;3.10;;;15.40;91.30;;;;;;5044724;28;20033;-28
2023/10/21 04:59:07;;;;;;;7.97;3.00;;;15.10;93.10;;;;;;5052492;28;20049;-29
2023/10/21 05:01:32;;;;;;;8.10;2.75;;;15.20;90.50;;;;;;5046928;28;20049;-29
2023/10/21 05:03:59;;;;;;;5.75;2.80;;;15.50;91.10;;;;;;5047674;28;20077;-28
2023/10/21 05:06:25;;;;;;;6.30;3.13;;;15.40;96.60;;;;;;5057091;28;20514;-28
2023/10/21 05:08:50;;;;;;;7.57;3.35;;;16.10;90.50;;;;;;5048120;28;20061;-27
2023/10/21 05:11:16;;;;;;;6.32;3.38;;;15.30;93.30;;;;;;5051109;28;20074;-30
2023/10/21 05:13:42;;;;;;;7.82;3.97;;;15.30;93.30;;;;;;5049840;28;20107;-28
2023/10/21 05:16:08;;;;;;;6.45;3.70;;;;;;;;;;5048686;28;20147;-29
2023/10/21 05:18:33;;;;;;;7.25;3.38;;;15.30;90.50;;;;;;5049031;28;20115;-28
2023/10/21 05:20:59;;;;;;;6.47;3.63;;;15.30;90.30;;;;;;5048284;28;20566;-28
2023/10/21 05:23:25;;;;;;;7.80;3.83;;;15.10;92.40;;;;;;5048467;28;20416;-27
2023/10/21 05:25:51;;;;;;;7.53;4.13;;;;;;;;;;5053785;28;20119;-28
2023/10/21 05:28:17;;;;;;;5.93;3.65;;;;;;;;;;5053743;28;20044;-27
2023/10/21 05:30:43;;;;;;;8.70;4.28;;;;;;;;;;5041737;28;20131;-29
2023/10/21 05:33:10;;;;;;;9.35;4.07;;;;;;;;;;5048311;28;20036;-28
2023/10/21 05:35:35;;;;;;;9.02;4.30;;;15.50;98.50;;;;;;5049877;28;20076;-27
2023/10/21 05:38:01;;;;;;;10.13;4.80;;;15.30;98.60;;;;;;5044789;28;20453;-29
2023/10/21 05:40:26;;;;;;;7.82;4.45;;;15.10;91.60;;;;;;5039110;28;20111;-29
2023/10/21 05:42:52;;;;;;;8.27;4.35;;;15.40;95.40;;;;;;5044928;28;20044;-29
2023/10/21 05:45:18;;;;;;;9.60;5.35;;;15.00;98.30;;;;;;5043785;28;20040;-28
2023/10/21 05:47:43;;;;;;;9.57;5.43;;;15.20;96.60;;;;;;5045799;28;20033;-28
2023/10/21 05:50:09;;;;;;;9.52;6.07;;;15.30;92.70;;;;;;5031061;28;20028;-31
2023/10/21 05:52:35;;;;;;;8.60;5.40;;;15.80;92.70;;;;;;5043667;28;20118;-28
2023/10/21 05:55:04;;;;;;;8.60;5.65;;;15.30;92.90;;;;;;5040595;28;20041;-28
2023/10/21 05:57:30;;;;;;;8.93;5.28;;;15.70;92.90;;;;;;5043916;28;20048;-30
2023/10/21 05:59:55;;;;;;;9.13;5.72;;;15.20;94.20;;;;;;5048470;28;20045;-29
2023/10/21 06:02:21;;;;;;;9.73;5.18;;;16.00;94.20;;;;;;5047003;28;20036;-28
2023/10/21 06:04:47;;;;;;;7.38;4.93;;;;;;;;;;5050123;28;20083;-28
2023/10/21 06:07:13;;;;;;;12.38;5.60;;;;;;;;;;5031145;28;20036;-28
2023/10/21 06:09:39;;;;;;;12.00;6.22;;;;;;;;;;5049378;28;20035;-29
2023/10/21 06:12:06;;;;;;;11.98;6.50;;;;;;;;;;5046216;28;20120;-26
2023/10/21 06:14:31;;;;;;;14.43;6.95;;;15.40;95.30;;;;;;5044637;28;20037;-29
2023/10/21 06:17:00;;;;;;;12.35;6.82;;;15.00;91.10;;;;;;5046569;28;20522;-28
2023/10/21 06:19:26;;;;;;;17.30;6.65;;;15.30;99.40;;;;;;5049854;28;20045;-27
2023/10/21 06:21:54;;;;;;;19.38;7.78;;;;;;;;;;5052748;28;20612;-28
2023/10/21 06:24:20;;;;;;;19.13;6.90;;;15.40;98.90;;;;;;5045729;28;20500;-27
2023/10/21 06:26:46;;;;;;;16.83;7.20;;;15.70;99.90;;;;;;5049924;28;20029;-28
2023/10/21 06:29:12;;;;;;;19.90;7.53;;;;;;;;;;5048921;28;20508;-28
2023/10/21 06:31:38;;;;;;;20.48;7.78;;;;;;;;;;5053116;28;20038;-28
2023/10/21 06:34:20;;;;;;;16.67;7.35;;;;;;;;;;5046938;28;20040;-28
2023/10/21 06:36:46;;;;;;;18.23;7.10;;;;;;;;;;5051049;28;20040;-29
2023/10/21 06:39:12;;;;;;;20.30;7.18;;;16.00;99.90;;;;;;5042129;28;20048;-30
2023/10/21 06:41:38;;;;;;;12.93;6.93;;;15.40;99.90;;;;;;5046532;28;20111;-28
2023/10/21 06:44:15;;;;;;;16.23;5.80;;;15.70;99.90;;;;;;5043535;28;20119;-28
2023/10/21 06:46:45;;;;;;;16.73;5.60;;;;;;;;;;5035096;28;20370;-28
2023/10/21 06:49:14;;;;;;;12.90;5.28;;;;;;;;;;5020789;28;20040;-28
2023/10/21 06:51:39;;;;;;;12.25;4.18;;;15.70;99.90;;;;;;5024882;28;20047;-29
2023/10/21 06:54:07;;;;;;;11.27;4.28;;;15.80;99.90;;;;;;5035071;28;20045;-29
2023/10/21 06:56:33;;;;;;;10.13;4.68;;;15.70;99.90;;;;;;5039156;28;20033;-29
2023/10/21 06:58:59;;;;;;;12.27;5.63;;;15.70;99.90;;;;;;5035623;28;20110;-28
2023/10/21 07:01:26;;;;;;;15.90;5.75;;;;;;;;;;5028135;28;20056;-29
2023/10/21 07:03:53;;;;;;;16.15;5.57;;;15.30;99.90;;;;;;5040147;28;20044;-28
2023/10/21 07:06:20;;;;;;;12.80;5.53;;;16.20;99.90;;;;;;5040543;28;20044;-28
2023/10/21 07:08:46;;;;;;;13.50;4.80;;;15.80;99.90;;;;;;5033780;28;22689;-31
2023/10/21 07:11:12;;;;;;;12.75;4.18;;;15.90;99.90;;;;;;5036560;28;20045;-28
2023/10/21 07:13:38;;;;;;;11.75;4.70;;;15.60;99.90;;;;;;5041357;28;20566;-30
2023/10/21 07:16:06;;;;;;;12.30;4.60;;;;;;;;;;5031200;28;20029;-28
2023/10/21 07:18:32;;;;;;;7.97;3.60;;;;;;;;;;5028363;28;20061;-29
2023/10/21 07:20:58;;;;;;;10.65;2.95;;;16.00;99.90;;;;;;5041595;28;20034;-28
2023/10/21 07:23:24;;;;;;;12.77;5.20;;;16.20;99.90;;;;;;5049524;28;20519;-28
2023/10/21 07:25:51;;;;;;;11.93;3.70;;;16.40;99.90;;;;;;5042577;28;20097;-28
2023/10/21 07:28:16;;;;;;;9.77;3.63;;;15.80;99.90;;;;;;5050262;28;20033;-28
2023/10/21 07:30:42;;;;;;;11.07;4.70;;;16.10;99.90;;;;;;5045952;28;20052;-30
2023/10/21 07:33:08;;;;;;;9.88;5.05;;;15.50;99.90;;;;;;5042295;28;20044;-28
2023/10/21 07:35:34;;;;;;;8.38;4.25;;;;;;;;;;5051598;28;20041;-28
2023/10/21 07:38:01;;;;;;;10.15;4.80;;;15.90;99.90;;;;;;5042626;28;20492;-29
2023/10/21 07:40:29;;;;;;;7.97;4.72;;;16.40;99.90;;;;;;5042774;28;20441;-28
2023/10/21 07:42:55;;;;;;;8.77;4.43;;;16.00;99.90;;;;;;5046134;28;20049;-28
2023/10/21 07:45:21;;;;;;;11.90;4.82;;;;;;;;;;5042389;28;20085;-30
2023/10/21 07:47:47;;;;;;;9.20;3.95;;;16.70;99.90;;;;;;5041996;28;20378;-28
2023/10/21 07:50:13;;;;;;;10.77;4.05;;;;;;;;;;5052291;28;20031;-29
2023/10/21 07:52:40;;;;;;;22.20;6.82;;;16.10;99.90;;;;;;5031786;28;20128;-28
2023/10/21 07:55:07;;;;;;;19.83;5.90;;;;;;;;;;5048291;28;20106;-28
2023/10/21 07:57:32;;;;;;;16.67;4.95;;;16.40;99.90;;;;;;5032899;28;20131;-28
2023/10/21 07:59:59;;;;;;;16.83;4.75;;;16.20;99.90;;;;;;5056860;28;20115;-28
2023/10/21 08:02:25;;;;;;;14.10;4.25;;;15.70;99.90;;;;;;5049234;28;20059;-28
2023/10/21 08:04:50;;;;;;;13.45;4.63;;;16.10;99.90;;;;;;5054774;28;20508;-28
2023/10/21 08:07:16;;;;;;;16.27;4.38;;;15.60;99.90;;;;;;5049981;28;20407;-29
2023/10/21 08:09:42;;;;;;;11.43;4.20;;;;;;;;;;5049400;28;20450;-29
2023/10/21 08:12:08;;;;;;;11.05;3.80;;;16.00;99.90;;;;;;5047121;28;20585;-28
2023/10/21 08:14:36;;;;;;;12.25;3.90;;;16.00;99.90;;;;;;5050331;28;20041;-29
2023/10/21 08:17:04;;;;;;;10.60;3.40;;;16.40;99.90;;;;;;5049997;28;20504;-28
2023/10/21 08:19:30;;;;;;;11.25;3.35;;;16.70;99.90;;;;;;5041835;28;20037;-29
2023/10/21 08:21:57;;;;;;;11.02;3.30;;;16.20;99.90;;;;;;5042975;28;20080;-29
2023/10/21 08:24:23;;;;;;;11.27;4.10;;;15.50;99.90;;;;;;5053723;28;20539;-29
2023/10/21 08:26:48;;;;;;;9.38;3.40;;;16.70;99.90;;;;;;5051513;28;20049;-29
2023/10/21 08:29:14;;;;;;;10.40;3.15;;;16.10;99.90;;;;;;5049832;28;20044;-29
2023/10/21 08:31:41;;;;;;;8.45;2.90;;;;;;;;;;5045972;28;20041;-29
2023/10/21 08:34:12;;;;;;;8.45;3.20;;;;;;;;;;5049428;28;20408;-29
2023/10/21 08:36:39;;;;;;;6.97;3.50;;;16.50;99.90;;;;;;5048205;28;20454;-29
2023/10/21 08:39:07;;;;;;;11.35;3.10;;;16.10;99.90;;;;;;5049819;28;20033;-29
2023/10/21 08:41:37;;;;;;;6.35;3.05;;;16.50;99.90;;;;;;5047798;28;20051;-29
2023/10/21 08:44:02;;;;;;;9.85;3.17;;;16.50;99.90;;;;;;5048631;28;20041;-28
2023/10/21 08:46:31;;;;;;;7.55;2.97;;;;;;;;;;5046859;28;20029;-29
2023/10/21 08:48:58;;;;;;;7.40;2.90;;;;;;;;;;5052452;28;20431;-29
2023/10/21 08:51:25;;;;;;;7.20;2.80;;;16.60;99.90;;;;;;5043477;28;20075;-29
2023/10/21 08:53:58;;;;;;;7.32;2.78;;;;;;;;;;5044578;28;20095;-29
2023/10/21 08:56:24;;;;;;;5.60;2.45;;;16.20;99.90;;;;;;5044030;28;20032;-29
2023/10/21 08:58:57;;;;;;;6.68;2.83;;;;;;;;;;5048771;28;20076;-28
2023/10/21 09:01:24;;;;;;;6.03;2.53;;;16.30;99.90;;;;;;5042621;28;20037;-28
2023/10/21 09:03:50;;;;;;;6.28;2.55;;;16.60;99.90;;;;;;5051542;28;20412;-30
2023/10/21 09:06:17;;;;;;;5.60;2.70;;;16.80;99.90;;;;;;5047439;28;20453;-29
2023/10/21 09:08:45;;;;;;;5.88;2.60;;;;;;;;;;5051002;28;20041;-30
2023/10/21 09:11:18;;;;;;;6.95;3.05;;;16.60;99.90;;;;;;5049091;28;20039;-28
2023/10/21 09:13:45;;;;;;;6.63;2.90;;;16.30;99.90;;;;;;5050940;28;20044;-29
2023/10/21 09:16:25;;;;;;;6.70;2.90;;;;;;;;;;5050331;28;20558;-29
2023/10/21 09:18:58;;;;;;;5.53;2.55;;;;;;;;;;5049391;28;20041;-29
2023/10/21 09:21:38;;;;;;;6.38;3.13;;;16.20;99.90;;;;;;5044327;28;20037;-29
2023/10/21 09:24:04;;;;;;;6.50;2.85;;;17.00;99.90;;;;;;5050949;28;20060;-28
2023/10/21 09:26:32;;;;;;;7.43;2.47;;;;;;;;;;5050049;28;20048;-28
2023/10/21 09:29:07;;;;;;;5.78;2.60;;;16.20;99.90;;;;;;5049466;28;20539;-29
2023/10/21 09:31:42;;;;;;;6.78;2.42;;;;;;;;;;5046659;28;20112;-29
2023/10/21 09:34:08;;;;;;;6.25;2.63;;;16.30;99.90;;;;;;5052891;28;20043;-29
2023/10/21 09:36:40;;;;;;;6.20;2.30;;;16.90;99.90;;;;;;5054490;28;20027;-29
2023/10/21 09:39:09;;;;;;;6.93;2.42;;;16.80;99.90;;;;;;5052965;28;20040;-28
2023/10/21 09:41:37;;;;;;;5.22;2.55;;;;;;;;;;5052411;28;20049;-28
2023/10/21 09:44:05;;;;;;;5.45;2.40;;;16.40;99.90;;;;;;5052830;28;20044;-29
2023/10/21 09:46:35;;;;;;;5.55;2.20;;;16.50;99.90;;;;;;5053893;28;20028;-29
2023/10/21 09:49:04;;;;;;;5.10;2.20;;;16.60;99.90;;;;;;5053418;28;20041;-29
2023/10/21 09:51:36;;;;;;;5.78;2.60;;;16.60;99.90;;;;;;5053057;28;20387;-28
2023/10/21 09:54:07;;;;;;;5.65;2.30;;;;;;;;;;5054471;28;20044;-29
2023/10/21 09:56:34;;;;;;;6.75;2.28;;;16.70;99.90;;;;;;5053661;28;20621;-29
2023/10/21 09:59:02;;;;;;;5.82;2.10;;;16.10;99.90;;;;;;5048836;28;20090;-29
2023/10/21 10:01:29;;;;;;;5.78;2.38;;;16.20;99.90;;;;;;5054065;28;20037;-29
2023/10/21 10:03:56;;;;;;;6.75;2.20;;;16.60;99.90;;;;;;5053455;28;20068;-29
2023/10/21 10:06:23;;;;;;;4.10;1.70;;;;;;;;;;5054399;28;20033;-28
2023/10/21 10:08:49;;;;;;;5.00;1.85;;;16.90;99.90;;;;;;5054280;28;20041;-29
2023/10/21 10:11:19;;;;;;;6.22;1.98;;;16.80;99.90;;;;;;5052890;28;20439;-29
2023/10/21 10:13:48;;;;;;;5.13;1.85;;;16.00;99.90;;;;;;5051350;28;20044;-29
2023/10/21 10:16:23;;;;;;;6.32;2.80;;;15.80;99.90;;;;;;5051555;28;20065;-29
2023/10/21 10:18:50;;;;;;;6.13;2.30;;;15.90;99.90;;;;;;5051679;28;20041;-29
2023/10/21 10:21:17;;;;;;;5.60;1.90;;;15.80;99.90;;;;;;5052413;28;20045;-29
2023/10/21 10:23:50;;;;;;;5.55;2.00;;;;;;;;;;5034885;28;20037;-29
2023/10/21 10:26:39;;;;;;;5.40;1.85;;;16.80;99.90;;;;;;5052344;28;20044;-29
2023/10/21 10:29:18;;;;;;;5.03;1.73;;;;;;;;;;5051494;28;20036;-28
2023/10/21 10:31:46;;;;;;;4.80;1.80;;;16.90;99.90;;;;;;5052597;28;20037;-29
2023/10/21 10:34:12;;;;;;;4.90;1.50;;;16.50;99.90;;;;;;5053128;28;20330;-28
2023/10/21 10:36:37;;;;;;;4.10;1.60;;;16.50;99.90;;;;;;5052777;28;20112;-29
2023/10/21 10:39:04;;;;;;;4.90;1.85;;;17.00;99.90;;;;;;5051170;28;20098;-29
2023/10/21 10:41:31;;;;;;;4.43;1.55;;;16.70;99.90;;;;;;5051151;28;20048;-28
2023/10/21 10:44:03;;;;;;;4.95;1.60;;;16.80;99.90;;;;;;5051337;28;20028;-29
2023/10/21 10:46:31;;;;;;;4.35;1.55;;;16.20;99.90;;;;;;5051405;28;20514;-28
2023/10/21 10:49:05;;;;;;;4.65;1.60;;;15.90;99.90;;;;;;5049291;28;20037;-29
2023/10/21 10:51:42;;;;;;;3.92;1.15;;;16.10;99.90;;;;;;5038312;28;20071;-30
2023/10/21 10:54:12;;;;;;;4.22;1.40;;;16.00;99.90;;;;;;5028916;28;20033;-29
2023/10/21 10:56:50;;;;;;;5.68;1.60;;;16.50;99.90;;;;;;5047163;28;20033;-29
2023/10/21 10:59:24;;;;;;;4.25;1.58;;;;;;;;;;5049628;28;20543;-29
2023/10/21 11:01:57;;;;;;;;;;;16.80;99.90;;;;;;5048397;28;20120;-29
2023/10/21 11:04:25;;;;;;;3.58;1.50;;;16.60;99.90;;;;;;5051890;28;19931;-28
2023/10/21 11:06:52;;;;;;;5.60;1.52;;;16.50;99.90;;;;;;5028284;28;20041;-29
2023/10/21 11:09:17;;;;;;;4.40;1.50;;;16.50;99.90;;;;;;5051041;28;20408;-29
2023/10/21 11:11:54;;;;;;;3.40;1.27;;;;;;;;;;5050024;28;20033;-29
2023/10/21 11:14:20;;;;;;;5.33;1.67;;;15.90;99.90;;;;;;5051867;28;20040;-29
2023/10/21 11:16:50;;;;;;;4.43;1.60;;;;;;;;;;5051614;28;20064;-29
2023/10/21 11:19:16;;;;;;;3.45;1.25;;;17.10;99.90;;;;;;5051326;28;20041;-29
2023/10/21 11:21:42;;;;;;;3.80;1.45;;;16.90;99.90;;;;;;5032646;28;20037;-28
2023/10/21 11:24:30;;;;;;;3.75;1.30;;;15.90;99.90;;;;;;5045649;28;20523;-30
2023/10/21 11:26:59;;;;;;;4.15;1.60;;;16.50;99.90;;;;;;5051004;28;20174;-29
2023/10/21 11:29:25;;;;;;;4.18;1.58;;;16.60;99.90;;;;;;5054738;28;20130;-30
2023/10/21 11:31:54;;;;;;;4.05;1.33;;;16.50;99.90;;;;;;5050708;28;20528;-28
2023/10/21 11:34:21;;;;;;;4.78;1.77;;;16.70;99.90;;;;;;5043350;28;20082;-29
2023/10/21 11:36:48;;;;;;;3.95;1.30;;;16.50;99.90;;;;;;5067820;28;20064;-29
2023/10/21 11:39:21;;;;;;;4.28;1.60;;;16.70;99.90;;;;;;5062709;28;20052;-28
2023/10/21 11:41:49;;;;;;;3.58;1.35;;;15.90;99.90;;;;;;5061972;28;20159;-31
2023/10/21 11:44:17;;;;;;;4.82;1.65;;;;;;;;;;5056865;28;20119;-28
2023/10/21 11:46:43;;;;;;;4.32;1.40;;;15.80;99.90;;;;;;5063604;28;20063;-30
2023/10/21 11:49:13;;;;;;;3.58;1.35;;;15.90;99.90;;;;;;5062543;28;20087;-29
2023/10/21 11:51:46;;;;;;;4.57;1.52;;;16.50;99.90;;;;;;5050295;28;20048;-29
2023/10/21 12:03:31;;;;;;;4.00;1.30;;;16.90;99.90;;;;;;5063437;28;20041;-29
2023/10/21 12:23:50;;;;;;;2.83;1.00;;;16.80;99.90;;;;;;5059656;28;20048;-28
2023/10/21 12:43:20;;;;;;;2.67;1.05;;;16.70;99.90;;;;;;5058659;28;20069;-28
2023/10/21 12:45:44;;;;;;;3.33;1.00;;;15.80;99.90;;;;;;5055300;28;20037;-29
2023/10/21 12:48:17;;;;;;;2.90;1.00;;;16.90;99.90;;;;;;5053400;28;20040;-31
2023/10/21 12:50:43;;;;;;;3.85;1.00;;;16.10;99.90;;;;;;5051746;28;20079;-29
2023/10/21 12:53:12;;;;;;;3.28;1.10;;;16.70;99.90;;;;;;5056804;28;20124;-30
2023/10/21 12:55:38;;;;;;;4.10;1.27;;;16.80;99.90;;;;;;5041798;28;20055;-32
2023/10/21 12:58:03;;;;;;;3.10;1.25;;;16.70;99.90;;;;;;5049417;28;20492;-28
2023/10/21 13:00:31;;;;;;;3.00;1.10;;;16.60;99.90;;;;;;5054096;28;20155;-30
2023/10/21 13:02:57;;;;;;;1.88;0.90;;;;;;;;;;5042009;28;20421;-29
2023/10/21 13:05:23;;;;;;;3.58;1.00;;;;;;;;;;5059109;28;20186;-29
2023/10/21 13:07:49;;;;;;;3.05;1.00;;;16.60;99.90;;;;;;5063004;28;20303;-28
2023/10/21 13:10:15;;;;;;;3.25;1.10;;;16.20;99.90;;;;;;5059113;28;20061;-29
2023/10/21 13:12:41;;;;;;;2.30;0.90;;;;;;;;;;5053209;28;20037;-28
2023/10/21 13:15:14;;;;;;;4.75;1.23;;;16.90;99.90;;;;;;5061532;28;20071;-29
2023/10/21 13:17:40;;;;;;;3.90;1.38;;;17.30;99.90;;;;;;5054780;28;20059;-29
2023/10/21 13:20:19;;;;;;;4.95;1.27;;;16.90;99.90;;;;;;5053945;28;20491;-30
2023/10/21 13:22:46;;;;;;;2.72;0.98;;;16.70;99.90;;;;;;5061696;28;20134;-29
2023/10/21 13:25:13;;;;;;;3.13;1.17;;;16.70;99.90;;;;;;5052945;28;20037;-30
2023/10/21 13:27:42;;;;;;;3.20;1.25;;;16.30;99.90;;;;;;5058647;28;20036;-29
2023/10/21 13:30:15;;;;;;;4.35;1.10;;;16.70;99.90;;;;;;5052302;28;20033;-29
2023/10/21 13:32:44;;;;;;;3.78;0.90;;;;;;;;;;5053466;28;20025;-30
2023/10/21 13:35:12;;;;;;;2.78;0.82;;;17.20;99.90;;;;;;5058591;28;20163;-29
2023/10/21 13:37:39;;;;;;;2.70;0.90;;;16.50;99.90;;;;;;5059147;28;20040;-28
2023/10/21 13:40:17;;;;;;;2.97;0.98;;;16.80;99.90;;;;;;5056640;28;20120;-30
2023/10/21 13:42:53;;;;;;;3.13;1.00;;;16.70;99.90;;;;;;5048814;28;20039;-29
2023/10/21 13:45:26;;;;;;;2.50;0.82;;;16.70;99.90;;;;;;5051666;28;20037;-30
2023/10/21 13:47:51;;;;;;;2.47;0.80;;;16.40;99.90;;;;;;5050193;28;20037;-29
2023/10/21 13:50:18;;;;;;;2.92;0.88;;;16.70;99.90;;;;;;5052751;28;20051;-32
2023/10/21 13:53:17;;;;;;;2.33;0.90;;;17.00;99.90;;;;;;5056721;28;20119;-29
2023/10/21 13:55:46;;;;;;;3.33;0.98;;;16.90;99.90;;;;;;5056678;28;20055;-28
2023/10/21 13:58:15;;;;;;;2.67;0.82;;;17.50;99.90;;;;;;5053240;28;20048;-29
2023/10/21 14:00:41;;;;;;;2.10;0.90;;;16.80;99.90;;;;;;5044045;28;20044;-29
2023/10/21 14:03:08;;;;;;;2.22;0.85;;;;;;;;;;5051529;28;20045;-29